Terminal Aerodrome Forecast
Issued by NWS

Home | Current Version | Previous Version | Graphics & Text | Print | Product List | Glossary On
Versions: 1 2 3 4 5 6 7 8 9 10 11 12 13 14 15 16 17 18 19 20 21 22 23 24 25 26
000
FTUS43 KFGF 260500
TAFBJI
TAF
KBJI 260537Z 2606/2706 14003KT P6SM -SN OVC024
      TEMPO 2606/2610 3SM -SN OVC025
     FM261000 01009KT P6SM OVC025
     FM261500 33010KT P6SM SCT025=

USA.gov is the U.S. government's official web portal to all federal, state and local government web resources and services.